sensor_id;sensor_type;location;lat;lon;timestamp;temperature;humidity
70534;SHT31;58088;51.186;17.130;2023-02-28T00:01:25;2.69;65.30
70534;SHT31;58088;51.186;17.130;2023-02-28T00:03:52;2.70;64.99
70534;SHT31;58088;51.186;17.130;2023-02-28T00:06:18;2.71;64.75
70534;SHT31;58088;51.186;17.130;2023-02-28T00:08:44;2.72;64.51
70534;SHT31;58088;51.186;17.130;2023-02-28T00:11:11;2.73;64.47
70534;SHT31;58088;51.186;17.130;2023-02-28T00:13:41;2.74;64.55
70534;SHT31;58088;51.186;17.130;2023-02-28T00:16:14;2.76;64.85
70534;SHT31;58088;51.186;17.130;2023-02-28T00:18:46;2.75;64.85
70534;SHT31;58088;51.186;17.130;2023-02-28T00:21:14;2.69;64.86
70534;SHT31;58088;51.186;17.130;2023-02-28T00:23:41;2.67;64.88
70534;SHT31;58088;51.186;17.130;2023-02-28T00:26:08;2.69;64.60
70534;SHT31;58088;51.186;17.130;2023-02-28T00:28:34;2.72;64.40
70534;SHT31;58088;51.186;17.130;2023-02-28T00:31:00;2.74;64.31
70534;SHT31;58088;51.186;17.130;2023-02-28T00:33:27;2.75;64.32
70534;SHT31;58088;51.186;17.130;2023-02-28T00:36:07;2.74;64.50
70534;SHT31;58088;51.186;17.130;2023-02-28T00:38:36;2.76;64.85
70534;SHT31;58088;51.186;17.130;2023-02-28T00:41:05;2.77;64.90
70534;SHT31;58088;51.186;17.130;2023-02-28T00:43:33;2.76;65.01
70534;SHT31;58088;51.186;17.130;2023-02-28T00:46:03;2.75;65.41
70534;SHT31;58088;51.186;17.130;2023-02-28T00:48:30;2.76;65.42
70534;SHT31;58088;51.186;17.130;2023-02-28T00:50:56;2.74;65.35
70534;SHT31;58088;51.186;17.130;2023-02-28T00:53:24;2.69;65.39
70534;SHT31;58088;51.186;17.130;2023-02-28T00:55:51;2.67;65.51
70534;SHT31;58088;51.186;17.130;2023-02-28T00:58:17;2.69;65.65
70534;SHT31;58088;51.186;17.130;2023-02-28T01:00:44;2.72;65.40
70534;SHT31;58088;51.186;17.130;2023-02-28T01:03:17;2.71;65.63
70534;SHT31;58088;51.186;17.130;2023-02-28T01:05:46;2.73;65.73
70534;SHT31;58088;51.186;17.130;2023-02-28T01:08:12;2.75;65.84
70534;SHT31;58088;51.186;17.130;2023-02-28T01:10:39;2.77;65.71
70534;SHT31;58088;51.186;17.130;2023-02-28T01:13:08;2.78;65.53
70534;SHT31;58088;51.186;17.130;2023-02-28T01:15:36;2.79;65.67
70534;SHT31;58088;51.186;17.130;2023-02-28T01:18:04;2.81;65.90
70534;SHT31;58088;51.186;17.130;2023-02-28T01:20:32;2.83;65.86
70534;SHT31;58088;51.186;17.130;2023-02-28T01:23:03;2.83;66.02
70534;SHT31;58088;51.186;17.130;2023-02-28T01:25:29;2.82;66.16
70534;SHT31;58088;51.186;17.130;2023-02-28T01:27:55;2.81;66.28
70534;SHT31;58088;51.186;17.130;2023-02-28T01:30:22;2.80;66.28
70534;SHT31;58088;51.186;17.130;2023-02-28T01:32:48;2.77;66.16
70534;SHT31;58088;51.186;17.130;2023-02-28T01:35:17;2.71;66.20
70534;SHT31;58088;51.186;17.130;2023-02-28T01:37:44;2.70;66.02
70534;SHT31;58088;51.186;17.130;2023-02-28T01:40:11;2.72;66.02
70534;SHT31;58088;51.186;17.130;2023-02-28T01:42:38;2.73;66.11
70534;SHT31;58088;51.186;17.130;2023-02-28T01:47:52;2.72;66.17
70534;SHT31;58088;51.186;17.130;2023-02-28T01:50:26;2.72;66.21
70534;SHT31;58088;51.186;17.130;2023-02-28T01:52:59;2.72;66.39
70534;SHT31;58088;51.186;17.130;2023-02-28T01:55:30;2.69;66.64
70534;SHT31;58088;51.186;17.130;2023-02-28T01:58:00;2.65;66.80
70534;SHT31;58088;51.186;17.130;2023-02-28T02:00:30;2.61;66.79
70534;SHT31;58088;51.186;17.130;2023-02-28T02:02:59;2.61;66.78
70534;SHT31;58088;51.186;17.130;2023-02-28T02:05:36;2.60;66.60
70534;SHT31;58088;51.186;17.130;2023-02-28T02:08:10;2.59;66.61
70534;SHT31;58088;51.186;17.130;2023-02-28T02:10:50;2.56;66.72
70534;SHT31;58088;51.186;17.130;2023-02-28T02:25:44;2.72;66.79
70534;SHT31;58088;51.186;17.130;2023-02-28T02:28:45;2.70;66.93
70534;SHT31;58088;51.186;17.130;2023-02-28T02:40:17;2.69;67.37
70534;SHT31;58088;51.186;17.130;2023-02-28T02:43:24;2.65;67.50
70534;SHT31;58088;51.186;17.130;2023-02-28T02:46:04;2.67;67.41
70534;SHT31;58088;51.186;17.130;2023-02-28T02:48:40;2.67;67.07
70534;SHT31;58088;51.186;17.130;2023-02-28T02:51:11;2.69;66.95
70534;SHT31;58088;51.186;17.130;2023-02-28T02:53:51;2.66;67.28
70534;SHT31;58088;51.186;17.130;2023-02-28T02:56:27;2.66;67.40
70534;SHT31;58088;51.186;17.130;2023-02-28T02:58:59;2.66;67.49
70534;SHT31;58088;51.186;17.130;2023-02-28T03:01:30;2.65;67.62
70534;SHT31;58088;51.186;17.130;2023-02-28T03:04:01;2.66;67.68
70534;SHT31;58088;51.186;17.130;2023-02-28T03:06:33;2.66;67.69
70534;SHT31;58088;51.186;17.130;2023-02-28T03:09:01;2.63;67.76
70534;SHT31;58088;51.186;17.130;2023-02-28T03:11:28;2.65;67.75
70534;SHT31;58088;51.186;17.130;2023-02-28T03:16:32;2.65;67.81
70534;SHT31;58088;51.186;17.130;2023-02-28T03:24:55;2.54;68.00
70534;SHT31;58088;51.186;17.130;2023-02-28T03:27:32;2.53;67.93
70534;SHT31;58088;51.186;17.130;2023-02-28T03:30:53;2.52;67.90
70534;SHT31;58088;51.186;17.130;2023-02-28T03:33:36;2.51;68.00
70534;SHT31;58088;51.186;17.130;2023-02-28T03:36:10;2.51;67.94
70534;SHT31;58088;51.186;17.130;2023-02-28T03:41:36;2.43;67.79
70534;SHT31;58088;51.186;17.130;2023-02-28T03:44:16;2.44;67.75
70534;SHT31;58088;51.186;17.130;2023-02-28T03:46:55;2.45;67.54
70534;SHT31;58088;51.186;17.130;2023-02-28T03:49:32;2.45;67.40
70534;SHT31;58088;51.186;17.130;2023-02-28T03:52:09;2.45;67.40
70534;SHT31;58088;51.186;17.130;2023-02-28T03:54:39;2.44;67.25
70534;SHT31;58088;51.186;17.130;2023-02-28T03:57:26;2.43;67.29
70534;SHT31;58088;51.186;17.130;2023-02-28T04:00:14;2.45;67.12
70534;SHT31;58088;51.186;17.130;2023-02-28T04:02:54;2.44;67.15
70534;SHT31;58088;51.186;17.130;2023-02-28T04:05:21;2.45;67.32
70534;SHT31;58088;51.186;17.130;2023-02-28T04:07:48;2.45;67.43
70534;SHT31;58088;51.186;17.130;2023-02-28T04:10:15;2.41;66.84
70534;SHT31;58088;51.186;17.130;2023-02-28T04:12:42;2.37;66.62
70534;SHT31;58088;51.186;17.130;2023-02-28T04:15:08;2.33;67.18
70534;SHT31;58088;51.186;17.130;2023-02-28T04:17:36;2.31;67.58
70534;SHT31;58088;51.186;17.130;2023-02-28T04:20:03;2.32;67.77
70534;SHT31;58088;51.186;17.130;2023-02-28T04:22:35;2.33;67.99
70534;SHT31;58088;51.186;17.130;2023-02-28T04:25:02;2.35;68.12
70534;SHT31;58088;51.186;17.130;2023-02-28T04:27:29;2.35;68.23
70534;SHT31;58088;51.186;17.130;2023-02-28T04:29:55;2.34;68.23
70534;SHT31;58088;51.186;17.130;2023-02-28T04:32:21;2.35;68.28
70534;SHT31;58088;51.186;17.130;2023-02-28T04:34:47;2.34;68.37
70534;SHT31;58088;51.186;17.130;2023-02-28T04:37:14;2.32;68.49
70534;SHT31;58088;51.186;17.130;2023-02-28T04:39:41;2.28;68.52
70534;SHT31;58088;51.186;17.130;2023-02-28T04:42:08;2.19;68.54
70534;SHT31;58088;51.186;17.130;2023-02-28T04:44:35;2.16;67.99
70534;SHT31;58088;51.186;17.130;2023-02-28T04:47:02;2.18;67.54
70534;SHT31;58088;51.186;17.130;2023-02-28T04:49:28;2.21;67.49
70534;SHT31;58088;51.186;17.130;2023-02-28T04:51:54;2.24;67.16
70534;SHT31;58088;51.186;17.130;2023-02-28T04:54:21;2.25;66.91
70534;SHT31;58088;51.186;17.130;2023-02-28T04:56:47;2.25;66.53
70534;SHT31;58088;51.186;17.130;2023-02-28T04:59:15;2.20;66.38
70534;SHT31;58088;51.186;17.130;2023-02-28T05:01:44;2.20;66.17
70534;SHT31;58088;51.186;17.130;2023-02-28T05:04:13;2.22;66.07
70534;SHT31;58088;51.186;17.130;2023-02-28T05:06:41;2.22;65.60
70534;SHT31;58088;51.186;17.130;2023-02-28T05:09:07;2.21;65.05
70534;SHT31;58088;51.186;17.130;2023-02-28T05:11:33;2.20;64.98
70534;SHT31;58088;51.186;17.130;2023-02-28T05:14:02;2.21;65.15
70534;SHT31;58088;51.186;17.130;2023-02-28T05:16:35;2.23;64.87
70534;SHT31;58088;51.186;17.130;2023-02-28T05:19:01;2.25;64.99
70534;SHT31;58088;51.186;17.130;2023-02-28T05:24:05;2.23;65.34
70534;SHT31;58088;51.186;17.130;2023-02-28T05:26:35;2.25;65.20
70534;SHT31;58088;51.186;17.130;2023-02-28T05:29:05;2.30;65.09
70534;SHT31;58088;51.186;17.130;2023-02-28T05:31:32;2.31;64.92
70534;SHT31;58088;51.186;17.130;2023-02-28T05:33:59;2.34;64.90
70534;SHT31;58088;51.186;17.130;2023-02-28T05:36:26;2.34;65.13
70534;SHT31;58088;51.186;17.130;2023-02-28T05:38:52;2.37;65.56
70534;SHT31;58088;51.186;17.130;2023-02-28T05:41:19;2.37;65.38
70534;SHT31;58088;51.186;17.130;2023-02-28T05:43:46;2.39;65.16
70534;SHT31;58088;51.186;17.130;2023-02-28T05:46:14;2.40;65.22
70534;SHT31;58088;51.186;17.130;2023-02-28T05:48:42;2.41;65.35
70534;SHT31;58088;51.186;17.130;2023-02-28T05:51:12;2.41;65.15
70534;SHT31;58088;51.186;17.130;2023-02-28T05:53:38;2.45;64.91
70534;SHT31;58088;51.186;17.130;2023-02-28T05:56:04;2.45;65.02
70534;SHT31;58088;51.186;17.130;2023-02-28T05:58:31;2.44;64.72
70534;SHT31;58088;51.186;17.130;2023-02-28T06:00:58;2.45;64.66
70534;SHT31;58088;51.186;17.130;2023-02-28T06:03:26;2.51;64.59
70534;SHT31;58088;51.186;17.130;2023-02-28T06:05:53;2.55;64.49
70534;SHT31;58088;51.186;17.130;2023-02-28T06:08:19;2.59;64.45
70534;SHT31;58088;51.186;17.130;2023-02-28T06:10:45;2.66;64.61
70534;SHT31;58088;51.186;17.130;2023-02-28T06:13:12;2.77;64.86
70534;SHT31;58088;51.186;17.130;2023-02-28T06:15:38;2.99;64.88
70534;SHT31;58088;51.186;17.130;2023-02-28T06:18:04;3.27;64.78
70534;SHT31;58088;51.186;17.130;2023-02-28T06:20:31;3.59;64.77
70534;SHT31;58088;51.186;17.130;2023-02-28T06:22:57;3.86;63.94
70534;SHT31;58088;51.186;17.130;2023-02-28T06:25:25;4.16;63.56
70534;SHT31;58088;51.186;17.130;2023-02-28T06:27:53;4.46;62.95
70534;SHT31;58088;51.186;17.130;2023-02-28T06:30:20;4.76;62.39
70534;SHT31;58088;51.186;17.130;2023-02-28T06:32:52;5.08;62.14
70534;SHT31;58088;51.186;17.130;2023-02-28T06:35:19;5.38;61.60
70534;SHT31;58088;51.186;17.130;2023-02-28T06:37:46;5.55;61.06
70534;SHT31;58088;51.186;17.130;2023-02-28T06:40:12;5.68;60.80
70534;SHT31;58088;51.186;17.130;2023-02-28T06:42:39;5.78;60.45
70534;SHT31;58088;51.186;17.130;2023-02-28T06:45:06;5.95;60.16
70534;SHT31;58088;51.186;17.130;2023-02-28T06:47:35;6.09;59.74
70534;SHT31;58088;51.186;17.130;2023-02-28T06:50:03;6.25;59.67
70534;SHT31;58088;51.186;17.130;2023-02-28T06:52:31;6.53;59.36
70534;SHT31;58088;51.186;17.130;2023-02-28T06:54:58;6.81;58.89
70534;SHT31;58088;51.186;17.130;2023-02-28T06:57:28;7.08;58.31
70534;SHT31;58088;51.186;17.130;2023-02-28T06:59:59;7.32;57.90
70534;SHT31;58088;51.186;17.130;2023-02-28T07:02:33;7.57;57.26
70534;SHT31;58088;51.186;17.130;2023-02-28T07:05:04;7.77;56.57
70534;SHT31;58088;51.186;17.130;2023-02-28T07:07:31;7.94;55.89
70534;SHT31;58088;51.186;17.130;2023-02-28T07:09:57;7.88;55.20
70534;SHT31;58088;51.186;17.130;2023-02-28T07:12:24;7.97;55.39
70534;SHT31;58088;51.186;17.130;2023-02-28T07:14:50;8.16;54.70
70534;SHT31;58088;51.186;17.130;2023-02-28T07:17:16;8.32;53.71
70534;SHT31;58088;51.186;17.130;2023-02-28T07:19:42;8.45;53.03
70534;SHT31;58088;51.186;17.130;2023-02-28T07:22:11;8.56;52.74
70534;SHT31;58088;51.186;17.130;2023-02-28T07:24:37;8.62;52.04
70534;SHT31;58088;51.186;17.130;2023-02-28T07:27:04;8.72;51.96
70534;SHT31;58088;51.186;17.130;2023-02-28T07:29:30;8.81;51.63
70534;SHT31;58088;51.186;17.130;2023-02-28T07:31:57;8.89;51.03
70534;SHT31;58088;51.186;17.130;2023-02-28T07:34:23;8.92;50.79
70534;SHT31;58088;51.186;17.130;2023-02-28T07:36:52;8.94;50.37
70534;SHT31;58088;51.186;17.130;2023-02-28T07:39:20;8.96;49.53
70534;SHT31;58088;51.186;17.130;2023-02-28T07:41:49;8.99;48.48
70534;SHT31;58088;51.186;17.130;2023-02-28T07:44:15;8.89;47.56
70534;SHT31;58088;51.186;17.130;2023-02-28T07:46:41;8.92;48.78
70534;SHT31;58088;51.186;17.130;2023-02-28T07:49:08;9.02;48.64
70534;SHT31;58088;51.186;17.130;2023-02-28T07:51:34;9.07;48.58
70534;SHT31;58088;51.186;17.130;2023-02-28T07:54:00;9.01;48.12
70534;SHT31;58088;51.186;17.130;2023-02-28T07:56:27;8.99;47.88
70534;SHT31;58088;51.186;17.130;2023-02-28T07:58:53;9.04;46.88
70534;SHT31;58088;51.186;17.130;2023-02-28T08:01:19;8.95;46.09
70534;SHT31;58088;51.186;17.130;2023-02-28T08:03:45;8.90;45.59
70534;SHT31;58088;51.186;17.130;2023-02-28T08:06:16;8.85;45.89
70534;SHT31;58088;51.186;17.130;2023-02-28T08:08:48;8.94;46.06
70534;SHT31;58088;51.186;17.130;2023-02-28T08:11:15;8.96;45.84
70534;SHT31;58088;51.186;17.130;2023-02-28T08:13:43;9.09;45.69
70534;SHT31;58088;51.186;17.130;2023-02-28T08:16:11;9.19;45.18
70534;SHT31;58088;51.186;17.130;2023-02-28T08:18:50;9.15;44.26
70534;SHT31;58088;51.186;17.130;2023-02-28T08:21:19;9.10;44.34
70534;SHT31;58088;51.186;17.130;2023-02-28T08:23:47;9.09;44.32
70534;SHT31;58088;51.186;17.130;2023-02-28T08:26:16;9.09;44.69
70534;SHT31;58088;51.186;17.130;2023-02-28T08:28:43;9.10;44.18
70534;SHT31;58088;51.186;17.130;2023-02-28T08:31:10;9.10;44.37
70534;SHT31;58088;51.186;17.130;2023-02-28T08:33:41;8.99;44.03
70534;SHT31;58088;51.186;17.130;2023-02-28T08:36:08;8.93;44.01
70534;SHT31;58088;51.186;17.130;2023-02-28T08:38:35;8.90;43.56
70534;SHT31;58088;51.186;17.130;2023-02-28T08:41:04;8.93;43.53
70534;SHT31;58088;51.186;17.130;2023-02-28T08:43:34;8.99;43.86
70534;SHT31;58088;51.186;17.130;2023-02-28T08:46:02;9.01;43.53
70534;SHT31;58088;51.186;17.130;2023-02-28T08:48:30;9.01;43.07
70534;SHT31;58088;51.186;17.130;2023-02-28T08:51:01;8.96;43.44
70534;SHT31;58088;51.186;17.130;2023-02-28T08:53:35;8.91;43.66
70534;SHT31;58088;51.186;17.130;2023-02-28T08:56:04;8.95;44.24
70534;SHT31;58088;51.186;17.130;2023-02-28T08:58:38;9.00;44.55
70534;SHT31;58088;51.186;17.130;2023-02-28T09:01:16;9.08;44.46
70534;SHT31;58088;51.186;17.130;2023-02-28T09:03:48;9.10;43.86
70534;SHT31;58088;51.186;17.130;2023-02-28T09:06:17;9.11;43.88
70534;SHT31;58088;51.186;17.130;2023-02-28T09:08:45;9.10;44.06
70534;SHT31;58088;51.186;17.130;2023-02-28T09:11:11;9.19;44.13
70534;SHT31;58088;51.186;17.130;2023-02-28T09:13:38;9.11;43.65
70534;SHT31;58088;51.186;17.130;2023-02-28T09:16:07;8.94;42.96
70534;SHT31;58088;51.186;17.130;2023-02-28T09:18:38;8.69;42.63
70534;SHT31;58088;51.186;17.130;2023-02-28T09:21:05;8.46;42.38
70534;SHT31;58088;51.186;17.130;2023-02-28T09:23:35;8.47;43.17
70534;SHT31;58088;51.186;17.130;2023-02-28T09:26:03;8.43;44.20
70534;SHT31;58088;51.186;17.130;2023-02-28T09:28:31;8.42;44.25
70534;SHT31;58088;51.186;17.130;2023-02-28T09:30:58;8.46;44.20
70534;SHT31;58088;51.186;17.130;2023-02-28T09:33:24;8.55;44.50
70534;SHT31;58088;51.186;17.130;2023-02-28T09:35:57;8.55;44.80
70534;SHT31;58088;51.186;17.130;2023-02-28T09:38:26;8.46;44.32
70534;SHT31;58088;51.186;17.130;2023-02-28T09:40:55;8.30;44.18
70534;SHT31;58088;51.186;17.130;2023-02-28T09:43:31;8.21;44.40
70534;SHT31;58088;51.186;17.130;2023-02-28T09:46:08;8.08;43.46
70534;SHT31;58088;51.186;17.130;2023-02-28T09:48:54;7.93;43.14
70534;SHT31;58088;51.186;17.130;2023-02-28T09:54:13;7.84;42.87
70534;SHT31;58088;51.186;17.130;2023-02-28T09:56:45;7.84;43.08
70534;SHT31;58088;51.186;17.130;2023-02-28T10:02:15;7.93;43.59
70534;SHT31;58088;51.186;17.130;2023-02-28T10:05:07;7.97;43.33
70534;SHT31;58088;51.186;17.130;2023-02-28T10:10:47;8.00;43.68
70534;SHT31;58088;51.186;17.130;2023-02-28T10:16:05;8.06;43.55
70534;SHT31;58088;51.186;17.130;2023-02-28T10:18:47;8.02;44.03
70534;SHT31;58088;51.186;17.130;2023-02-28T10:21:26;7.95;44.02
70534;SHT31;58088;51.186;17.130;2023-02-28T10:24:11;7.86;44.03
70534;SHT31;58088;51.186;17.130;2023-02-28T10:27:12;7.91;45.19
70534;SHT31;58088;51.186;17.130;2023-02-28T10:29:40;8.01;44.53
70534;SHT31;58088;51.186;17.130;2023-02-28T10:32:15;7.97;44.10
70534;SHT31;58088;51.186;17.130;2023-02-28T10:34:55;7.96;44.68
70534;SHT31;58088;51.186;17.130;2023-02-28T10:37:47;7.92;44.01
70534;SHT31;58088;51.186;17.130;2023-02-28T10:42:54;8.02;45.33
70534;SHT31;58088;51.186;17.130;2023-02-28T10:45:25;8.08;45.32
70534;SHT31;58088;51.186;17.130;2023-02-28T10:47:59;8.06;44.97
70534;SHT31;58088;51.186;17.130;2023-02-28T10:50:51;7.92;44.90
70534;SHT31;58088;51.186;17.130;2023-02-28T10:58:55;7.71;44.86
70534;SHT31;58088;51.186;17.130;2023-02-28T11:04:17;7.38;43.83
70534;SHT31;58088;51.186;17.130;2023-02-28T11:06:59;7.39;44.58
70534;SHT31;58088;51.186;17.130;2023-02-28T11:09:33;7.42;45.50
70534;SHT31;58088;51.186;17.130;2023-02-28T11:15:06;7.32;44.70
70534;SHT31;58088;51.186;17.130;2023-02-28T11:17:59;7.24;44.85
70534;SHT31;58088;51.186;17.130;2023-02-28T11:20:38;7.22;45.19
70534;SHT31;58088;51.186;17.130;2023-02-28T11:23:05;7.34;45.54
70534;SHT31;58088;51.186;17.130;2023-02-28T11:25:39;7.47;45.89
70534;SHT31;58088;51.186;17.130;2023-02-28T11:33:44;7.79;45.92
70534;SHT31;58088;51.186;17.130;2023-02-28T11:36:26;7.82;45.47
70534;SHT31;58088;51.186;17.130;2023-02-28T11:39:00;7.69;44.75
70534;SHT31;58088;51.186;17.130;2023-02-28T11:47:12;7.54;45.23
70534;SHT31;58088;51.186;17.130;2023-02-28T11:50:04;7.57;45.28
70534;SHT31;58088;51.186;17.130;2023-02-28T11:53:17;7.57;44.35
70534;SHT31;58088;51.186;17.130;2023-02-28T12:14:06;7.25;45.40
70534;SHT31;58088;51.186;17.130;2023-02-28T12:17:26;7.34;45.06
70534;SHT31;58088;51.186;17.130;2023-02-28T12:23:10;7.44;45.30
70534;SHT31;58088;51.186;17.130;2023-02-28T12:26:02;7.50;45.61
70534;SHT31;58088;51.186;17.130;2023-02-28T12:31:51;7.54;45.86
70534;SHT31;58088;51.186;17.130;2023-02-28T12:34:34;7.48;45.58
70534;SHT31;58088;51.186;17.130;2023-02-28T12:37:10;7.48;45.96
70534;SHT31;58088;51.186;17.130;2023-02-28T12:39:54;7.50;46.11
70534;SHT31;58088;51.186;17.130;2023-02-28T12:42:39;7.45;45.43
70534;SHT31;58088;51.186;17.130;2023-02-28T12:47:50;7.51;45.42
70534;SHT31;58088;51.186;17.130;2023-02-28T12:50:26;7.46;45.45
70534;SHT31;58088;51.186;17.130;2023-02-28T12:53:00;7.43;45.88
70534;SHT31;58088;51.186;17.130;2023-02-28T12:58:50;7.50;45.87
70534;SHT31;58088;51.186;17.130;2023-02-28T13:04:45;7.53;46.58
70534;SHT31;58088;51.186;17.130;2023-02-28T13:10:08;7.60;46.02
70534;SHT31;58088;51.186;17.130;2023-02-28T13:12:36;7.54;45.74
70534;SHT31;58088;51.186;17.130;2023-02-28T13:15:08;7.54;46.17
70534;SHT31;58088;51.186;17.130;2023-02-28T13:17:58;7.58;45.88
70534;SHT31;58088;51.186;17.130;2023-02-28T13:20:26;7.55;45.64
70534;SHT31;58088;51.186;17.130;2023-02-28T13:23:00;7.52;45.43
70534;SHT31;58088;51.186;17.130;2023-02-28T13:27:59;7.27;44.86
70534;SHT31;58088;51.186;17.130;2023-02-28T13:36:08;7.29;45.34
70534;SHT31;58088;51.186;17.130;2023-02-28T13:38:44;7.25;44.91
70534;SHT31;58088;51.186;17.130;2023-02-28T14:07:02;7.26;44.84
70534;SHT31;58088;51.186;17.130;2023-02-28T14:09:33;7.27;45.20
70534;SHT31;58088;51.186;17.130;2023-02-28T14:18:28;7.19;45.44
70534;SHT31;58088;51.186;17.130;2023-02-28T14:21:02;7.12;45.28
70534;SHT31;58088;51.186;17.130;2023-02-28T14:38:20;6.96;45.77
70534;SHT31;58088;51.186;17.130;2023-02-28T14:41:03;6.89;45.64
70534;SHT31;58088;51.186;17.130;2023-02-28T14:43:46;6.89;45.67
70534;SHT31;58088;51.186;17.130;2023-02-28T14:46:23;6.88;46.23
70534;SHT31;58088;51.186;17.130;2023-02-28T14:48:58;6.82;46.15
70534;SHT31;58088;51.186;17.130;2023-02-28T14:51:24;6.75;46.24
70534;SHT31;58088;51.186;17.130;2023-02-28T14:53:56;6.70;46.74
70534;SHT31;58088;51.186;17.130;2023-02-28T14:56:27;6.65;46.98
70534;SHT31;58088;51.186;17.130;2023-02-28T14:59:02;6.61;47.17
70534;SHT31;58088;51.186;17.130;2023-02-28T15:01:30;6.58;46.88
70534;SHT31;58088;51.186;17.130;2023-02-28T15:04:00;6.57;47.19
70534;SHT31;58088;51.186;17.130;2023-02-28T15:06:30;6.51;47.16
70534;SHT31;58088;51.186;17.130;2023-02-28T15:09:09;6.44;46.94
70534;SHT31;58088;51.186;17.130;2023-02-28T15:11:42;6.44;47.20
70534;SHT31;58088;51.186;17.130;2023-02-28T15:14:17;6.38;46.75
70534;SHT31;58088;51.186;17.130;2023-02-28T15:16:48;6.30;46.62
70534;SHT31;58088;51.186;17.130;2023-02-28T15:19:31;6.29;46.80
70534;SHT31;58088;51.186;17.130;2023-02-28T15:22:04;6.27;47.02
70534;SHT31;58088;51.186;17.130;2023-02-28T15:24:41;6.23;47.18
70534;SHT31;58088;51.186;17.130;2023-02-28T15:27:23;6.18;46.97
70534;SHT31;58088;51.186;17.130;2023-02-28T15:29:57;6.15;46.97
70534;SHT31;58088;51.186;17.130;2023-02-28T15:32:31;6.13;46.82
70534;SHT31;58088;51.186;17.130;2023-02-28T15:35:25;6.11;46.81
70534;SHT31;58088;51.186;17.130;2023-02-28T15:37:56;6.09;46.74
70534;SHT31;58088;51.186;17.130;2023-02-28T15:40:57;6.03;47.02
70534;SHT31;58088;51.186;17.130;2023-02-28T15:43:28;5.97;46.50
70534;SHT31;58088;51.186;17.130;2023-02-28T15:46:07;5.96;46.72
70534;SHT31;58088;51.186;17.130;2023-02-28T15:48:43;5.95;47.00
70534;SHT31;58088;51.186;17.130;2023-02-28T15:51:33;5.91;47.20
70534;SHT31;58088;51.186;17.130;2023-02-28T15:54:06;5.85;47.30
70534;SHT31;58088;51.186;17.130;2023-02-28T15:56:48;5.80;47.54
70534;SHT31;58088;51.186;17.130;2023-02-28T15:59:23;5.72;47.44
70534;SHT31;58088;51.186;17.130;2023-02-28T16:04:35;5.59;47.97
70534;SHT31;58088;51.186;17.130;2023-02-28T16:07:04;5.49;48.42
70534;SHT31;58088;51.186;17.130;2023-02-28T16:09:38;5.38;48.91
70534;SHT31;58088;51.186;17.130;2023-02-28T16:12:05;5.31;49.27
70534;SHT31;58088;51.186;17.130;2023-02-28T16:14:31;5.22;49.66
70534;SHT31;58088;51.186;17.130;2023-02-28T16:17:05;5.16;50.00
70534;SHT31;58088;51.186;17.130;2023-02-28T16:19:43;5.08;50.03
70534;SHT31;58088;51.186;17.130;2023-02-28T16:22:09;5.00;50.37
70534;SHT31;58088;51.186;17.130;2023-02-28T16:24:36;4.95;50.64
70534;SHT31;58088;51.186;17.130;2023-02-28T16:27:04;4.90;50.74
70534;SHT31;58088;51.186;17.130;2023-02-28T16:29:32;4.85;50.67
70534;SHT31;58088;51.186;17.130;2023-02-28T16:32:06;4.80;50.86
70534;SHT31;58088;51.186;17.130;2023-02-28T16:34:34;4.79;50.98
70534;SHT31;58088;51.186;17.130;2023-02-28T16:37:00;4.75;51.00
70534;SHT31;58088;51.186;17.130;2023-02-28T16:39:27;4.74;51.14
70534;SHT31;58088;51.186;17.130;2023-02-28T16:41:54;4.71;51.19
70534;SHT31;58088;51.186;17.130;2023-02-28T16:44:27;4.68;51.33
70534;SHT31;58088;51.186;17.130;2023-02-28T16:46:58;4.61;51.52
70534;SHT31;58088;51.186;17.130;2023-02-28T16:49:27;4.60;51.54
70534;SHT31;58088;51.186;17.130;2023-02-28T16:51:54;4.56;51.44
70534;SHT31;58088;51.186;17.130;2023-02-28T16:54:20;4.53;51.45
70534;SHT31;58088;51.186;17.130;2023-02-28T16:56:48;4.49;51.48
70534;SHT31;58088;51.186;17.130;2023-02-28T16:59:17;4.46;51.41
70534;SHT31;58088;51.186;17.130;2023-02-28T17:01:49;4.41;51.43
70534;SHT31;58088;51.186;17.130;2023-02-28T17:04:17;4.37;51.53
70534;SHT31;58088;51.186;17.130;2023-02-28T17:06:51;4.35;51.58
70534;SHT31;58088;51.186;17.130;2023-02-28T17:09:21;4.33;51.73
70534;SHT31;58088;51.186;17.130;2023-02-28T17:11:50;4.28;51.86
70534;SHT31;58088;51.186;17.130;2023-02-28T17:14:17;4.26;51.98
70534;SHT31;58088;51.186;17.130;2023-02-28T17:16:46;4.22;52.09
70534;SHT31;58088;51.186;17.130;2023-02-28T17:19:19;4.18;52.25
70534;SHT31;58088;51.186;17.130;2023-02-28T17:21:46;4.15;52.40
70534;SHT31;58088;51.186;17.130;2023-02-28T17:24:15;4.10;52.52
70534;SHT31;58088;51.186;17.130;2023-02-28T17:26:45;4.07;52.67
70534;SHT31;58088;51.186;17.130;2023-02-28T17:29:16;4.01;52.83
70534;SHT31;58088;51.186;17.130;2023-02-28T17:32:13;3.95;53.00
70534;SHT31;58088;51.186;17.130;2023-02-28T17:35:10;3.90;53.27
70534;SHT31;58088;51.186;17.130;2023-02-28T17:37:39;3.85;53.42
70534;SHT31;58088;51.186;17.130;2023-02-28T17:40:15;3.77;53.61
70534;SHT31;58088;51.186;17.130;2023-02-28T17:42:46;3.74;53.70
70534;SHT31;58088;51.186;17.130;2023-02-28T17:45:16;3.71;53.78
70534;SHT31;58088;51.186;17.130;2023-02-28T17:51:12;3.59;54.17
70534;SHT31;58088;51.186;17.130;2023-02-28T17:53:40;3.56;54.30
70534;SHT31;58088;51.186;17.130;2023-02-28T17:56:14;3.52;54.44
70534;SHT31;58088;51.186;17.130;2023-02-28T17:58:44;3.46;54.56
70534;SHT31;58088;51.186;17.130;2023-02-28T18:01:10;3.40;54.67
70534;SHT31;58088;51.186;17.130;2023-02-28T18:03:38;3.37;54.83
70534;SHT31;58088;51.186;17.130;2023-02-28T18:06:05;3.29;55.06
70534;SHT31;58088;51.186;17.130;2023-02-28T18:08:39;3.23;55.29
70534;SHT31;58088;51.186;17.130;2023-02-28T18:11:06;3.18;55.42
70534;SHT31;58088;51.186;17.130;2023-02-28T18:13:46;3.15;55.49
70534;SHT31;58088;51.186;17.130;2023-02-28T18:16:16;3.13;55.54
70534;SHT31;58088;51.186;17.130;2023-02-28T18:18:44;3.11;55.66
70534;SHT31;58088;51.186;17.130;2023-02-28T18:21:11;3.08;55.77
70534;SHT31;58088;51.186;17.130;2023-02-28T18:23:41;3.06;55.89
70534;SHT31;58088;51.186;17.130;2023-02-28T18:26:17;3.03;55.99
70534;SHT31;58088;51.186;17.130;2023-02-28T18:28:46;3.03;55.98
70534;SHT31;58088;51.186;17.130;2023-02-28T18:31:14;3.01;55.98
70534;SHT31;58088;51.186;17.130;2023-02-28T18:33:48;3.00;56.01
70534;SHT31;58088;51.186;17.130;2023-02-28T18:36:17;2.98;56.19
70534;SHT31;58088;51.186;17.130;2023-02-28T18:38:46;2.95;56.44
70534;SHT31;58088;51.186;17.130;2023-02-28T18:41:15;2.94;56.48
70534;SHT31;58088;51.186;17.130;2023-02-28T18:43:48;2.93;56.47
70534;SHT31;58088;51.186;17.130;2023-02-28T18:46:16;2.93;56.40
70534;SHT31;58088;51.186;17.130;2023-02-28T18:48:45;2.92;56.49
70534;SHT31;58088;51.186;17.130;2023-02-28T18:51:14;2.88;56.61